KNUW/NUW METAR and TAF weather

Enter ICAO airport designator
Station Type Date Time Source
KNUW METAR 2020/01/23 18:28 UTC NOAA

KNUW 231828Z 14019G27KT 8SM -RA BKN019 BKN055 OVC080 13/09 A2993 RMK AO2 PK WND 15027/1821 P0001 T01280089


Station Type Date Time Source
KNUW Decoded METAR 2020/01/23 18:28 UTC NOAA

NAS WHIDBEY ISLAND, WA, United States (KNUW) 48-21N 122-39W 8M
Jan 23, 2020 - 01:28 PM EST / 2020.01.23 1828 UTC
Wind: from the SE (140 degrees) at 22 MPH (19 KT) gusting to 31 MPH (27 KT):0
Visibility: 8 mile(s):0
Sky conditions: overcast
Weather: light rain
Precipitation last hour: 0.01 inches
Temperature: 55.0 F (12.8 C)
Dew Point: 48.0 F (8.9 C)
Relative Humidity: 77%
Pressure (altimeter): 29.93 in. Hg (1013 hPa)
ob: KNUW 231828Z 14019G27KT 8SM -RA BKN019 BKN055 OVC080 13/09 A2993 RMK AO2 PK WND 15027/1821 P0001 T01280089
cycle: 18

Station Type Date Time Source
KNUW TAF 2020/01/23 15:48 UTC NOAA

TAF COR KNUW 2315/2415 14018G35KT 9999 VCSH SCT015 BKN060 OVC100 640709 641603 540006 540609 QNH2988INS
TEMPO 2315/2321 14015G28KT 8000 -RA BR BKN015 BKN050 OVC100
FM232100 14016G28KT 9999 VCSH BKN020 BKN060 BKN200 640705 540104 550804 QNH2985INS
FM240300 14012G26KT 9999 -RA FEW005 BKN015 BKN060 OVC100 640709 641603 530009 540903 QNH2979INS
TEMPO 2403/2409 150017G30KT 9000 -RA BKN010 OVC025
FM241000 14012G16KT 9000 -RA BR BKN009 BKN015 OVC060 640609 500000 QNH2976INS T12/2322Z T07/2413Z COR 1605 FS30004

Example: see airport list